sensor_id;sensor_type;location;lat;lon;timestamp;P1;durP1;ratioP1;P2;durP2;ratioP2
45382;SDS011;42455;51.660;5.824;2023-06-26T00:03:24;14.0;;;12.0;;
45382;SDS011;42455;51.660;5.824;2023-06-26T00:08:30;13.0;;;12.0;;
45382;SDS011;42455;51.660;5.824;2023-06-26T00:13:37;12.0;;;11.0;;
45382;SDS011;42455;51.660;5.824;2023-06-26T00:18:43;12.0;;;11.0;;
45382;SDS011;42455;51.660;5.824;2023-06-26T00:23:49;12.0;;;11.0;;
45382;SDS011;42455;51.660;5.824;2023-06-26T00:28:55;13.0;;;12.0;;
45382;SDS011;42455;51.660;5.824;2023-06-26T00:34:01;12.0;;;11.0;;
45382;SDS011;42455;51.660;5.824;2023-06-26T00:39:08;12.0;;;11.0;;
45382;SDS011;42455;51.660;5.824;2023-06-26T00:44:14;10.0;;;9.0;;
45382;SDS011;42455;51.660;5.824;2023-06-26T00:49:20;10.0;;;9.0;;
45382;SDS011;42455;51.660;5.824;2023-06-26T00:54:26;11.0;;;10.0;;
45382;SDS011;42455;51.660;5.824;2023-06-26T00:59:33;11.0;;;10.0;;
45382;SDS011;42455;51.660;5.824;2023-06-26T01:04:39;12.0;;;11.0;;
45382;SDS011;42455;51.660;5.824;2023-06-26T01:09:44;12.0;;;11.0;;
45382;SDS011;42455;51.660;5.824;2023-06-26T01:14:50;12.0;;;11.0;;
45382;SDS011;42455;51.660;5.824;2023-06-26T01:25:15;13.0;;;12.0;;
45382;SDS011;42455;51.660;5.824;2023-06-26T01:30:09;13.0;;;12.0;;
45382;SDS011;42455;51.660;5.824;2023-06-26T01:35:16;13.0;;;12.0;;
45382;SDS011;42455;51.660;5.824;2023-06-26T01:40:21;13.0;;;12.0;;
45382;SDS011;42455;51.660;5.824;2023-06-26T01:45:32;11.0;;;10.0;;
45382;SDS011;42455;51.660;5.824;2023-06-26T01:50:34;10.0;;;9.0;;
45382;SDS011;42455;51.660;5.824;2023-06-26T01:55:47;9.0;;;8.0;;
45382;SDS011;42455;51.660;5.824;2023-06-26T02:00:46;8.0;;;8.0;;
45382;SDS011;42455;51.660;5.824;2023-06-26T02:05:52;8.0;;;7.0;;
45382;SDS011;42455;51.660;5.824;2023-06-26T02:10:58;7.0;;;6.0;;
45382;SDS011;42455;51.660;5.824;2023-06-26T02:16:05;6.0;;;6.0;;
45382;SDS011;42455;51.660;5.824;2023-06-26T02:21:11;6.0;;;5.0;;
45382;SDS011;42455;51.660;5.824;2023-06-26T02:26:17;5.0;;;5.0;;
45382;SDS011;42455;51.660;5.824;2023-06-26T02:31:23;5.0;;;4.0;;
45382;SDS011;42455;51.660;5.824;2023-06-26T02:36:29;5.0;;;4.0;;
45382;SDS011;42455;51.660;5.824;2023-06-26T02:41:36;6.0;;;4.0;;
45382;SDS011;42455;51.660;5.824;2023-06-26T02:46:42;5.0;;;4.0;;
45382;SDS011;42455;51.660;5.824;2023-06-26T02:51:48;5.5;;;4.0;;
45382;SDS011;42455;51.660;5.824;2023-06-26T02:56:54;7.0;;;4.0;;
45382;SDS011;42455;51.660;5.824;2023-06-26T03:02:00;5.0;;;4.0;;
45382;SDS011;42455;51.660;5.824;2023-06-26T03:07:07;7.0;;;4.0;;
45382;SDS011;42455;51.660;5.824;2023-06-26T03:12:12;5.0;;;4.0;;
45382;SDS011;42455;51.660;5.824;2023-06-26T03:17:18;6.0;;;4.0;;
45382;SDS011;42455;51.660;5.824;2023-06-26T03:22:24;6.0;;;4.0;;
45382;SDS011;42455;51.660;5.824;2023-06-26T03:27:31;6.0;;;4.0;;
45382;SDS011;42455;51.660;5.824;2023-06-26T03:32:37;5.0;;;5.0;;
45382;SDS011;42455;51.660;5.824;2023-06-26T03:37:43;7.0;;;6.0;;
45382;SDS011;42455;51.660;5.824;2023-06-26T03:42:49;7.0;;;6.0;;
45382;SDS011;42455;51.660;5.824;2023-06-26T03:47:55;7.0;;;6.0;;
45382;SDS011;42455;51.660;5.824;2023-06-26T03:53:02;7.0;;;5.0;;
45382;SDS011;42455;51.660;5.824;2023-06-26T03:58:08;8.0;;;5.0;;
45382;SDS011;42455;51.660;5.824;2023-06-26T04:03:14;7.0;;;5.0;;
45382;SDS011;42455;51.660;5.824;2023-06-26T04:08:20;7.5;;;6.0;;
45382;SDS011;42455;51.660;5.824;2023-06-26T04:13:27;7.0;;;6.0;;
45382;SDS011;42455;51.660;5.824;2023-06-26T04:18:33;8.0;;;7.0;;
45382;SDS011;42455;51.660;5.824;2023-06-26T04:23:39;8.0;;;7.0;;
45382;SDS011;42455;51.660;5.824;2023-06-26T04:28:45;7.0;;;7.0;;
45382;SDS011;42455;51.660;5.824;2023-06-26T04:33:51;9.0;;;7.0;;
45382;SDS011;42455;51.660;5.824;2023-06-26T04:38:58;9.0;;;6.0;;
45382;SDS011;42455;51.660;5.824;2023-06-26T04:44:04;10.0;;;6.5;;
45382;SDS011;42455;51.660;5.824;2023-06-26T04:49:10;7.0;;;6.0;;
45382;SDS011;42455;51.660;5.824;2023-06-26T04:54:16;7.0;;;6.0;;
45382;SDS011;42455;51.660;5.824;2023-06-26T04:59:22;8.0;;;6.0;;
45382;SDS011;42455;51.660;5.824;2023-06-26T05:04:29;9.0;;;6.0;;
45382;SDS011;42455;51.660;5.824;2023-06-26T05:09:35;10.0;;;6.5;;
45382;SDS011;42455;51.660;5.824;2023-06-26T05:14:41;9.0;;;6.0;;
45382;SDS011;42455;51.660;5.824;2023-06-26T05:19:47;11.0;;;7.0;;
45382;SDS011;42455;51.660;5.824;2023-06-26T05:24:54;10.0;;;7.0;;
45382;SDS011;42455;51.660;5.824;2023-06-26T05:30:00;11.0;;;6.0;;
45382;SDS011;42455;51.660;5.824;2023-06-26T05:35:06;11.0;;;6.5;;
45382;SDS011;42455;51.660;5.824;2023-06-26T05:40:13;10.0;;;6.0;;
45382;SDS011;42455;51.660;5.824;2023-06-26T05:45:18;9.0;;;5.0;;
45382;SDS011;42455;51.660;5.824;2023-06-26T05:50:25;11.5;;;5.0;;
45382;SDS011;42455;51.660;5.824;2023-06-26T05:55:31;12.0;;;5.0;;
45382;SDS011;42455;51.660;5.824;2023-06-26T06:00:37;11.0;;;5.0;;
45382;SDS011;42455;51.660;5.824;2023-06-26T06:05:43;11.0;;;5.0;;
45382;SDS011;42455;51.660;5.824;2023-06-26T06:10:49;12.0;;;5.0;;
45382;SDS011;42455;51.660;5.824;2023-06-26T06:15:56;10.0;;;4.0;;
45382;SDS011;42455;51.660;5.824;2023-06-26T06:21:02;11.0;;;5.0;;
45382;SDS011;42455;51.660;5.824;2023-06-26T06:26:08;11.0;;;5.0;;
45382;SDS011;42455;51.660;5.824;2023-06-26T06:31:14;10.0;;;4.5;;
45382;SDS011;42455;51.660;5.824;2023-06-26T06:36:20;10.0;;;5.0;;
45382;SDS011;42455;51.660;5.824;2023-06-26T06:41:26;11.0;;;5.0;;
45382;SDS011;42455;51.660;5.824;2023-06-26T06:46:33;8.0;;;4.0;;
45382;SDS011;42455;51.660;5.824;2023-06-26T06:51:39;9.0;;;4.0;;
45382;SDS011;42455;51.660;5.824;2023-06-26T06:56:45;8.0;;;4.0;;
45382;SDS011;42455;51.660;5.824;2023-06-26T07:01:51;10.0;;;4.0;;
45382;SDS011;42455;51.660;5.824;2023-06-26T07:06:58;6.0;;;3.0;;
45382;SDS011;42455;51.660;5.824;2023-06-26T07:12:04;6.0;;;3.0;;
45382;SDS011;42455;51.660;5.824;2023-06-26T07:17:10;7.5;;;3.0;;
45382;SDS011;42455;51.660;5.824;2023-06-26T07:22:16;6.0;;;3.0;;
45382;SDS011;42455;51.660;5.824;2023-06-26T07:27:22;5.0;;;3.0;;
45382;SDS011;42455;51.660;5.824;2023-06-26T07:32:29;6.0;;;3.0;;
45382;SDS011;42455;51.660;5.824;2023-06-26T07:37:35;6.0;;;3.0;;
45382;SDS011;42455;51.660;5.824;2023-06-26T07:42:41;5.0;;;3.0;;
45382;SDS011;42455;51.660;5.824;2023-06-26T07:47:47;4.5;;;3.0;;
45382;SDS011;42455;51.660;5.824;2023-06-26T07:52:54;6.0;;;3.0;;
45382;SDS011;42455;51.660;5.824;2023-06-26T07:58:00;6.0;;;3.0;;
45382;SDS011;42455;51.660;5.824;2023-06-26T08:03:06;5.0;;;3.0;;
45382;SDS011;42455;51.660;5.824;2023-06-26T08:08:12;6.0;;;3.0;;
45382;SDS011;42455;51.660;5.824;2023-06-26T08:13:18;4.0;;;3.0;;
45382;SDS011;42455;51.660;5.824;2023-06-26T08:18:25;5.0;;;3.5;;
45382;SDS011;42455;51.660;5.824;2023-06-26T08:23:31;6.0;;;4.0;;
45382;SDS011;42455;51.660;5.824;2023-06-26T08:28:37;4.0;;;3.0;;
45382;SDS011;42455;51.660;5.824;2023-06-26T08:33:43;9.0;;;6.0;;
45382;SDS011;42455;51.660;5.824;2023-06-26T08:38:49;5.0;;;4.0;;
45382;SDS011;42455;51.660;5.824;2023-06-26T08:43:55;5.0;;;4.0;;
45382;SDS011;42455;51.660;5.824;2023-06-26T08:49:02;7.0;;;4.0;;
45382;SDS011;42455;51.660;5.824;2023-06-26T08:54:11;9.0;;;5.0;;
45382;SDS011;42455;51.660;5.824;2023-06-26T08:59:13;4.0;;;2.0;;
45382;SDS011;42455;51.660;5.824;2023-06-26T09:04:19;4.0;;;2.0;;
45382;SDS011;42455;51.660;5.824;2023-06-26T09:09:26;3.0;;;2.0;;
45382;SDS011;42455;51.660;5.824;2023-06-26T09:14:32;2.0;;;1.0;;
45382;SDS011;42455;51.660;5.824;2023-06-26T09:19:38;4.0;;;2.0;;
45382;SDS011;42455;51.660;5.824;2023-06-26T09:24:44;3.0;;;2.0;;
45382;SDS011;42455;51.660;5.824;2023-06-26T09:29:51;3.0;;;1.0;;
45382;SDS011;42455;51.660;5.824;2023-06-26T09:34:57;3.0;;;1.0;;
45382;SDS011;42455;51.660;5.824;2023-06-26T09:40:03;3.0;;;1.0;;
45382;SDS011;42455;51.660;5.824;2023-06-26T09:45:17;3.0;;;1.0;;
45382;SDS011;42455;51.660;5.824;2023-06-26T09:50:20;3.0;;;1.0;;
45382;SDS011;42455;51.660;5.824;2023-06-26T09:55:22;3.0;;;1.0;;
45382;SDS011;42455;51.660;5.824;2023-06-26T10:00:28;3.0;;;1.0;;
45382;SDS011;42455;51.660;5.824;2023-06-26T10:05:34;2.0;;;1.0;;
45382;SDS011;42455;51.660;5.824;2023-06-26T10:10:40;3.0;;;1.0;;
45382;SDS011;42455;51.660;5.824;2023-06-26T10:15:47;2.0;;;1.0;;
45382;SDS011;42455;51.660;5.824;2023-06-26T10:20:55;2.0;;;1.0;;
45382;SDS011;42455;51.660;5.824;2023-06-26T10:25:59;3.0;;;1.0;;
45382;SDS011;42455;51.660;5.824;2023-06-26T10:31:07;4.0;;;1.0;;
45382;SDS011;42455;51.660;5.824;2023-06-26T10:36:12;4.0;;;1.0;;
45382;SDS011;42455;51.660;5.824;2023-06-26T10:41:18;2.5;;;1.0;;
45382;SDS011;42455;51.660;5.824;2023-06-26T10:46:24;3.0;;;1.0;;
45382;SDS011;42455;51.660;5.824;2023-06-26T10:51:30;3.0;;;1.0;;
45382;SDS011;42455;51.660;5.824;2023-06-26T10:56:47;3.0;;;1.0;;
45382;SDS011;42455;51.660;5.824;2023-06-26T11:01:42;2.0;;;1.0;;
45382;SDS011;42455;51.660;5.824;2023-06-26T11:06:49;2.0;;;1.0;;
45382;SDS011;42455;51.660;5.824;2023-06-26T11:11:58;2.0;;;1.0;;
45382;SDS011;42455;51.660;5.824;2023-06-26T11:17:02;2.0;;;1.0;;
45382;SDS011;42455;51.660;5.824;2023-06-26T11:22:07;1.5;;;1.0;;
45382;SDS011;42455;51.660;5.824;2023-06-26T11:27:14;2.0;;;1.0;;
45382;SDS011;42455;51.660;5.824;2023-06-26T11:32:20;2.0;;;1.0;;
45382;SDS011;42455;51.660;5.824;2023-06-26T11:37:26;4.0;;;1.0;;
45382;SDS011;42455;51.660;5.824;2023-06-26T11:42:33;3.0;;;1.0;;
45382;SDS011;42455;51.660;5.824;2023-06-26T11:47:39;2.0;;;1.0;;
45382;SDS011;42455;51.660;5.824;2023-06-26T11:52:45;2.0;;;1.0;;
45382;SDS011;42455;51.660;5.824;2023-06-26T11:57:54;2.0;;;1.0;;
45382;SDS011;42455;51.660;5.824;2023-06-26T12:02:57;1.0;;;1.0;;
45382;SDS011;42455;51.660;5.824;2023-06-26T12:08:03;1.0;;;1.0;;
45382;SDS011;42455;51.660;5.824;2023-06-26T12:13:10;3.0;;;1.0;;
45382;SDS011;42455;51.660;5.824;2023-06-26T12:18:16;2.0;;;1.0;;
45382;SDS011;42455;51.660;5.824;2023-06-26T12:23:22;1.0;;;1.0;;
45382;SDS011;42455;51.660;5.824;2023-06-26T12:28:28;2.0;;;1.0;;
45382;SDS011;42455;51.660;5.824;2023-06-26T12:33:34;1.0;;;1.0;;
45382;SDS011;42455;51.660;5.824;2023-06-26T12:38:41;2.0;;;1.0;;
45382;SDS011;42455;51.660;5.824;2023-06-26T12:43:47;1.0;;;1.0;;
45382;SDS011;42455;51.660;5.824;2023-06-26T12:48:54;2.0;;;1.0;;
45382;SDS011;42455;51.660;5.824;2023-06-26T12:53:59;2.0;;;1.0;;
45382;SDS011;42455;51.660;5.824;2023-06-26T12:59:05;1.0;;;1.0;;
45382;SDS011;42455;51.660;5.824;2023-06-26T13:04:12;2.0;;;1.0;;
45382;SDS011;42455;51.660;5.824;2023-06-26T13:09:18;1.0;;;1.0;;
45382;SDS011;42455;51.660;5.824;2023-06-26T13:14:25;2.0;;;1.0;;
45382;SDS011;42455;51.660;5.824;2023-06-26T13:19:31;4.0;;;1.0;;
45382;SDS011;42455;51.660;5.824;2023-06-26T13:24:37;4.0;;;1.0;;
45382;SDS011;42455;51.660;5.824;2023-06-26T13:29:43;2.5;;;1.0;;
45382;SDS011;42455;51.660;5.824;2023-06-26T13:34:50;2.0;;;1.0;;
45382;SDS011;42455;51.660;5.824;2023-06-26T13:39:56;2.0;;;1.0;;
45382;SDS011;42455;51.660;5.824;2023-06-26T13:45:03;2.0;;;1.0;;
45382;SDS011;42455;51.660;5.824;2023-06-26T13:50:09;2.0;;;1.0;;
45382;SDS011;42455;51.660;5.824;2023-06-26T13:55:14;2.0;;;1.0;;
45382;SDS011;42455;51.660;5.824;2023-06-26T14:00:21;2.0;;;1.0;;
45382;SDS011;42455;51.660;5.824;2023-06-26T14:05:27;2.0;;;1.0;;
45382;SDS011;42455;51.660;5.824;2023-06-26T14:10:33;4.0;;;1.0;;
45382;SDS011;42455;51.660;5.824;2023-06-26T14:15:38;2.0;;;1.0;;
45382;SDS011;42455;51.660;5.824;2023-06-26T14:20:45;2.0;;;1.0;;
45382;SDS011;42455;51.660;5.824;2023-06-26T14:25:51;1.0;;;1.0;;
45382;SDS011;42455;51.660;5.824;2023-06-26T14:30:57;2.0;;;1.0;;
45382;SDS011;42455;51.660;5.824;2023-06-26T14:36:03;1.0;;;1.0;;
45382;SDS011;42455;51.660;5.824;2023-06-26T14:41:09;2.0;;;1.0;;
45382;SDS011;42455;51.660;5.824;2023-06-26T14:46:16;1.0;;;1.0;;
45382;SDS011;42455;51.660;5.824;2023-06-26T14:51:22;2.0;;;1.0;;
45382;SDS011;42455;51.660;5.824;2023-06-26T14:56:28;2.0;;;1.0;;
45382;SDS011;42455;51.660;5.824;2023-06-26T15:01:34;2.0;;;1.0;;
45382;SDS011;42455;51.660;5.824;2023-06-26T15:06:41;4.0;;;1.0;;
45382;SDS011;42455;51.660;5.824;2023-06-26T15:11:47;3.0;;;1.0;;
45382;SDS011;42455;51.660;5.824;2023-06-26T15:16:53;2.0;;;1.0;;
45382;SDS011;42455;51.660;5.824;2023-06-26T15:21:59;2.0;;;1.0;;
45382;SDS011;42455;51.660;5.824;2023-06-26T15:27:05;2.5;;;1.0;;
45382;SDS011;42455;51.660;5.824;2023-06-26T15:32:12;3.0;;;1.0;;
45382;SDS011;42455;51.660;5.824;2023-06-26T15:37:18;2.0;;;1.0;;
45382;SDS011;42455;51.660;5.824;2023-06-26T15:42:27;1.0;;;1.0;;
45382;SDS011;42455;51.660;5.824;2023-06-26T15:47:30;2.0;;;1.0;;
45382;SDS011;42455;51.660;5.824;2023-06-26T15:52:37;2.0;;;1.0;;
45382;SDS011;42455;51.660;5.824;2023-06-26T15:57:43;2.0;;;1.0;;
45382;SDS011;42455;51.660;5.824;2023-06-26T16:02:49;1.0;;;1.0;;
45382;SDS011;42455;51.660;5.824;2023-06-26T16:07:55;2.0;;;1.0;;
45382;SDS011;42455;51.660;5.824;2023-06-26T16:13:01;1.0;;;1.0;;
45382;SDS011;42455;51.660;5.824;2023-06-26T16:18:07;2.0;;;1.0;;
45382;SDS011;42455;51.660;5.824;2023-06-26T16:23:14;3.0;;;1.0;;
45382;SDS011;42455;51.660;5.824;2023-06-26T16:28:20;2.0;;;1.0;;
45382;SDS011;42455;51.660;5.824;2023-06-26T16:33:26;2.0;;;1.0;;
45382;SDS011;42455;51.660;5.824;2023-06-26T16:38:32;2.0;;;1.0;;
45382;SDS011;42455;51.660;5.824;2023-06-26T16:43:38;2.0;;;1.0;;
45382;SDS011;42455;51.660;5.824;2023-06-26T16:48:45;1.0;;;1.0;;
45382;SDS011;42455;51.660;5.824;2023-06-26T16:53:51;2.0;;;1.0;;
45382;SDS011;42455;51.660;5.824;2023-06-26T16:58:57;2.0;;;1.0;;
45382;SDS011;42455;51.660;5.824;2023-06-26T17:04:03;1.0;;;1.0;;
45382;SDS011;42455;51.660;5.824;2023-06-26T17:09:10;2.0;;;1.0;;
45382;SDS011;42455;51.660;5.824;2023-06-26T17:14:16;2.0;;;1.0;;
45382;SDS011;42455;51.660;5.824;2023-06-26T17:19:22;1.0;;;1.0;;
45382;SDS011;42455;51.660;5.824;2023-06-26T17:24:28;1.0;;;1.0;;
45382;SDS011;42455;51.660;5.824;2023-06-26T17:29:34;2.0;;;1.0;;
45382;SDS011;42455;51.660;5.824;2023-06-26T17:34:41;2.0;;;1.0;;
45382;SDS011;42455;51.660;5.824;2023-06-26T17:39:47;2.0;;;1.0;;
45382;SDS011;42455;51.660;5.824;2023-06-26T17:44:53;2.0;;;1.0;;
45382;SDS011;42455;51.660;5.824;2023-06-26T17:49:59;2.0;;;1.0;;
45382;SDS011;42455;51.660;5.824;2023-06-26T17:55:06;2.0;;;1.0;;
45382;SDS011;42455;51.660;5.824;2023-06-26T18:00:12;1.0;;;1.0;;
45382;SDS011;42455;51.660;5.824;2023-06-26T18:05:18;2.0;;;1.0;;
45382;SDS011;42455;51.660;5.824;2023-06-26T18:10:24;2.0;;;1.0;;
45382;SDS011;42455;51.660;5.824;2023-06-26T18:15:30;1.0;;;1.0;;
45382;SDS011;42455;51.660;5.824;2023-06-26T18:20:37;1.0;;;1.0;;
45382;SDS011;42455;51.660;5.824;2023-06-26T18:25:43;2.0;;;1.0;;
45382;SDS011;42455;51.660;5.824;2023-06-26T18:30:49;2.0;;;1.0;;
45382;SDS011;42455;51.660;5.824;2023-06-26T18:35:55;2.0;;;1.0;;
45382;SDS011;42455;51.660;5.824;2023-06-26T18:41:02;1.0;;;1.0;;
45382;SDS011;42455;51.660;5.824;2023-06-26T18:46:08;2.0;;;1.0;;
45382;SDS011;42455;51.660;5.824;2023-06-26T18:51:14;2.0;;;1.0;;
45382;SDS011;42455;51.660;5.824;2023-06-26T18:56:20;2.0;;;1.0;;
45382;SDS011;42455;51.660;5.824;2023-06-26T19:01:26;3.0;;;1.0;;
45382;SDS011;42455;51.660;5.824;2023-06-26T19:06:32;2.0;;;1.0;;
45382;SDS011;42455;51.660;5.824;2023-06-26T19:11:39;2.5;;;1.0;;
45382;SDS011;42455;51.660;5.824;2023-06-26T19:21:51;2.0;;;1.0;;
45382;SDS011;42455;51.660;5.824;2023-06-26T19:26:57;2.0;;;1.0;;
45382;SDS011;42455;51.660;5.824;2023-06-26T19:32:03;2.0;;;1.0;;
45382;SDS011;42455;51.660;5.824;2023-06-26T19:37:10;3.0;;;1.0;;
45382;SDS011;42455;51.660;5.824;2023-06-26T19:42:16;2.0;;;1.0;;
45382;SDS011;42455;51.660;5.824;2023-06-26T19:47:22;2.0;;;1.0;;
45382;SDS011;42455;51.660;5.824;2023-06-26T19:52:27;2.0;;;1.0;;
45382;SDS011;42455;51.660;5.824;2023-06-26T19:57:34;2.0;;;1.0;;
45382;SDS011;42455;51.660;5.824;2023-06-26T20:02:40;3.0;;;1.0;;
45382;SDS011;42455;51.660;5.824;2023-06-26T20:07:46;4.0;;;2.0;;
45382;SDS011;42455;51.660;5.824;2023-06-26T20:12:52;3.0;;;1.0;;
45382;SDS011;42455;51.660;5.824;2023-06-26T20:17:57;3.0;;;1.0;;
45382;SDS011;42455;51.660;5.824;2023-06-26T20:23:05;3.0;;;1.0;;
45382;SDS011;42455;51.660;5.824;2023-06-26T20:28:10;2.0;;;1.0;;
45382;SDS011;42455;51.660;5.824;2023-06-26T20:33:16;3.0;;;1.0;;
45382;SDS011;42455;51.660;5.824;2023-06-26T20:38:22;3.0;;;1.0;;
45382;SDS011;42455;51.660;5.824;2023-06-26T20:43:29;3.0;;;2.0;;
45382;SDS011;42455;51.660;5.824;2023-06-26T20:48:35;3.0;;;2.0;;
45382;SDS011;42455;51.660;5.824;2023-06-26T20:53:41;3.0;;;2.0;;
45382;SDS011;42455;51.660;5.824;2023-06-26T20:58:47;3.0;;;2.0;;
45382;SDS011;42455;51.660;5.824;2023-06-26T21:03:53;3.0;;;2.0;;
45382;SDS011;42455;51.660;5.824;2023-06-26T21:08:59;2.5;;;2.0;;
45382;SDS011;42455;51.660;5.824;2023-06-26T21:14:06;4.0;;;2.0;;
45382;SDS011;42455;51.660;5.824;2023-06-26T21:19:12;3.0;;;2.0;;
45382;SDS011;42455;51.660;5.824;2023-06-26T21:24:18;5.0;;;2.0;;
45382;SDS011;42455;51.660;5.824;2023-06-26T21:34:31;2.0;;;2.0;;
45382;SDS011;42455;51.660;5.824;2023-06-26T21:39:37;4.0;;;2.0;;
45382;SDS011;42455;51.660;5.824;2023-06-26T21:44:43;4.0;;;2.0;;
45382;SDS011;42455;51.660;5.824;2023-06-26T21:49:49;4.0;;;3.0;;
45382;SDS011;42455;51.660;5.824;2023-06-26T21:54:55;3.0;;;3.0;;
45382;SDS011;42455;51.660;5.824;2023-06-26T22:00:02;4.0;;;3.0;;
45382;SDS011;42455;51.660;5.824;2023-06-26T22:05:08;4.0;;;3.0;;
45382;SDS011;42455;51.660;5.824;2023-06-26T22:10:14;4.0;;;3.0;;
45382;SDS011;42455;51.660;5.824;2023-06-26T22:15:20;5.0;;;3.0;;
45382;SDS011;42455;51.660;5.824;2023-06-26T22:20:27;5.0;;;3.0;;
45382;SDS011;42455;51.660;5.824;2023-06-26T22:25:33;5.0;;;3.0;;
45382;SDS011;42455;51.660;5.824;2023-06-26T22:30:39;4.0;;;3.0;;
45382;SDS011;42455;51.660;5.824;2023-06-26T22:35:45;4.5;;;3.0;;
45382;SDS011;42455;51.660;5.824;2023-06-26T22:40:51;4.0;;;3.0;;
45382;SDS011;42455;51.660;5.824;2023-06-26T22:45:58;5.0;;;3.0;;
45382;SDS011;42455;51.660;5.824;2023-06-26T22:51:04;4.0;;;3.0;;
45382;SDS011;42455;51.660;5.824;2023-06-26T22:56:10;4.0;;;3.0;;
45382;SDS011;42455;51.660;5.824;2023-06-26T23:01:16;4.0;;;4.0;;
45382;SDS011;42455;51.660;5.824;2023-06-26T23:06:22;4.0;;;3.5;;
45382;SDS011;42455;51.660;5.824;2023-06-26T23:11:29;5.0;;;4.0;;
45382;SDS011;42455;51.660;5.824;2023-06-26T23:16:35;5.0;;;4.0;;
45382;SDS011;42455;51.660;5.824;2023-06-26T23:21:41;5.0;;;4.0;;
45382;SDS011;42455;51.660;5.824;2023-06-26T23:26:47;4.0;;;4.0;;
45382;SDS011;42455;51.660;5.824;2023-06-26T23:31:53;4.0;;;4.0;;
45382;SDS011;42455;51.660;5.824;2023-06-26T23:37:00;5.0;;;4.0;;
45382;SDS011;42455;51.660;5.824;2023-06-26T23:42:06;5.0;;;4.0;;
45382;SDS011;42455;51.660;5.824;2023-06-26T23:47:12;6.0;;;4.0;;
45382;SDS011;42455;51.660;5.824;2023-06-26T23:52:18;4.0;;;4.0;;
45382;SDS011;42455;51.660;5.824;2023-06-26T23:57:24;6.0;;;4.0;;
